Time;durP1;ratioP1;P1;durP2;ratioP2;P2;SDS_P1;SDS_P2;PMS_P1;PMS_P2;Temp;Humidity;BMP_temperature;BMP_pressure;BME280_temperature;BME280_humidity;BME280_pressure;Samples;Min_cycle;Max_cycle;Signal;HPM_P1;HPM_P2
2022/11/26 00:00:18;;;;;;;21.67;6.95;;;6.60;99.90;;;;;;5063529;28;20032;-78
2022/11/26 00:02:53;;;;;;;22.67;6.53;;;7.10;99.90;;;;;;5078264;28;20043;-76
2022/11/26 00:05:22;;;;;;;31.45;7.80;;;6.70;99.90;;;;;;5077630;28;20111;-76
2022/11/26 00:08:20;;;;;;;26.05;6.43;;;6.30;99.90;;;;;;5063012;28;20067;-76
2022/11/26 00:11:06;;;;;;;;;;;;;;;;;;;;;
2022/11/26 00:13:38;;;;;;;18.40;5.43;;;6.80;99.90;;;;;;5059363;28;20041;-76
2022/11/26 00:19:44;;;;;;;21.73;6.63;;;6.70;99.90;;;;;;5066968;28;20661;-77
2022/11/26 00:22:36;;;;;;;23.25;5.85;;;6.30;99.90;;;;;;5079612;28;20060;-78
2022/11/26 00:25:15;;;;;;;17.25;5.50;;;5.90;99.90;;;;;;5056421;28;20379;-78
2022/11/26 00:27:41;;;;;;;17.02;5.88;;;7.40;99.90;;;;;;5061280;28;20033;-77
2022/11/26 00:30:42;;;;;;;23.15;6.88;;;6.90;99.90;;;;;;5044748;28;20343;-77
2022/11/26 00:33:22;;;;;;;;;;;;;;;;;;;;;
2022/11/26 00:36:38;;;;;;;28.85;8.43;;;7.00;99.90;;;;;;5068835;28;20036;-78
2022/11/26 00:39:17;;;;;;;25.70;7.47;;;7.00;99.90;;;;;;5077034;28;20032;-78
2022/11/26 00:41:52;;;;;;;21.08;7.38;;;6.30;99.90;;;;;;5052260;28;20219;-78
2022/11/26 00:44:21;;;;;;;27.02;8.40;;;6.90;99.90;;;;;;5037527;28;20033;-77
2022/11/26 00:47:00;;;;;;;28.23;7.15;;;6.70;99.90;;;;;;5060625;28;20120;-78
2022/11/26 00:53:25;;;;;;;26.35;6.68;;;7.50;99.90;;;;;;5060660;28;20204;-77
2022/11/26 00:56:09;;;;;;;30.20;7.43;;;6.40;99.90;;;;;;5055181;28;20039;-76
2022/11/26 00:58:35;;;;;;;24.42;7.57;;;6.70;99.90;;;;;;5078529;28;20075;-76
2022/11/26 01:01:19;;;;;;;32.22;7.90;;;6.40;99.90;;;;;;5054066;28;20087;-78
2022/11/26 01:03:45;;;;;;;24.95;7.53;;;5.10;99.90;;;;;;5066612;28;20029;-78
2022/11/26 01:06:33;;;;;;;21.75;7.43;;;6.10;99.90;;;;;;5078384;28;20088;-75
2022/11/26 01:13:07;;;;;;;20.10;7.95;;;6.30;99.90;;;;;;5019900;28;20494;-77
2022/11/26 01:15:35;;;;;;;20.25;7.15;;;6.80;99.90;;;;;;4990155;28;20044;-76
2022/11/26 01:18:08;;;;;;;26.23;7.97;;;6.70;99.90;;;;;;5057550;28;20041;-75
2022/11/26 01:21:02;;;;;;;23.75;8.13;;;5.50;99.90;;;;;;5084908;28;20171;-77
2022/11/26 01:23:49;;;;;;;22.52;8.45;;;6.60;99.90;;;;;;5091783;28;20134;-76
2022/11/26 01:26:25;;;;;;;26.33;8.40;;;6.10;99.90;;;;;;5064166;28;20533;-76
2022/11/26 01:28:51;;;;;;;16.80;7.78;;;6.60;99.90;;;;;;5077887;28;20040;-76
2022/11/26 01:31:23;;;;;;;22.48;8.63;;;6.60;99.90;;;;;;5041973;28;20090;-76
2022/11/26 01:33:49;;;;;;;25.63;8.52;;;5.30;99.90;;;;;;5058700;28;20278;-76
2022/11/26 01:40:22;;;;;;;;;;;5.40;99.90;;;;;;5008392;28;20770;-76
2022/11/26 01:43:48;;;;;;;22.30;7.95;;;6.70;99.90;;;;;;4943988;29;19981;-77
2022/11/26 01:46:25;;;;;;;26.52;10.68;;;6.40;99.90;;;;;;4930503;29;20082;-78
2022/11/26 01:48:51;;;;;;;30.52;8.80;;;6.20;99.90;;;;;;4937011;29;20043;-78
2022/11/26 01:52:12;;;;;;;26.17;8.27;;;6.80;99.90;;;;;;4975844;28;20034;-78
2022/11/26 01:55:53;;;;;;;;;;;;;;;;;;;;;
2022/11/26 02:02:08;;;;;;;25.20;8.80;;;5.00;99.90;;;;;;5039746;28;20112;-77
2022/11/26 02:04:49;;;;;;;27.70;9.25;;;6.30;99.90;;;;;;5043942;28;20102;-78
2022/11/26 02:07:15;;;;;;;26.45;8.73;;;5.70;99.90;;;;;;5043777;28;20486;-78
2022/11/26 02:09:41;;;;;;;21.60;8.77;;;6.40;99.90;;;;;;4995536;28;20091;-77
2022/11/26 02:12:23;;;;;;;;;;;;;;;;;;;;;
2022/11/26 02:14:55;;;;;;;28.13;9.77;;;;;;;;;;5035405;28;20041;-77
2022/11/26 02:17:47;;;;;;;27.73;8.82;;;6.00;99.90;;;;;;5050701;28;20048;-77
2022/11/26 02:20:33;;;;;;;21.30;9.35;;;6.50;99.90;;;;;;5015332;28;20052;-77
2022/11/26 02:23:02;;;;;;;23.95;9.50;;;6.40;99.90;;;;;;5040299;28;20392;-77
2022/11/26 02:25:43;;;;;;;23.35;9.55;;;6.00;99.90;;;;;;5038021;28;20286;-79
2022/11/26 02:28:24;;;;;;;20.40;9.15;;;6.40;99.90;;;;;;5053028;28;20025;-78
2022/11/26 02:31:25;;;;;;;33.40;9.23;;;6.00;99.90;;;;;;5075872;28;20278;-77
2022/11/26 02:34:17;;;;;;;18.38;9.57;;;6.40;99.90;;;;;;5043337;28;20266;-78
2022/11/26 02:40:32;;;;;;;25.33;10.00;;;6.90;99.90;;;;;;5100377;28;20039;-78
2022/11/26 02:42:58;;;;;;;27.35;9.90;;;6.10;99.90;;;;;;5084735;28;20055;-77
2022/11/26 02:49:22;;;;;;;32.97;9.05;;;7.00;99.90;;;;;;5046852;28;20277;-77
2022/11/26 02:52:09;;;;;;;23.33;8.75;;;6.80;99.90;;;;;;5064321;28;20045;-77
2022/11/26 02:55:05;;;;;;;22.67;8.40;;;8.70;99.90;;;;;;5080008;28;20032;-77
2022/11/26 02:57:36;;;;;;;25.02;9.52;;;6.20;99.90;;;;;;5062765;28;20466;-78
2022/11/26 03:00:04;;;;;;;29.65;9.48;;;6.10;99.90;;;;;;5056134;28;20033;-78
2022/11/26 03:02:44;;;;;;;29.92;9.38;;;6.20;99.90;;;;;;5065537;28;20038;-78
2022/11/26 03:05:12;;;;;;;32.10;9.73;;;5.80;99.90;;;;;;5062831;28;20075;-78
2022/11/26 03:07:38;;;;;;;34.97;10.98;;;5.90;99.90;;;;;;5075132;28;20100;-78
2022/11/26 03:10:12;;;;;;;27.23;11.20;;;5.90;99.90;;;;;;5049726;28;20234;-78
2022/11/26 03:12:44;;;;;;;31.65;11.23;;;6.40;99.90;;;;;;5063648;28;20210;-78
2022/11/26 03:15:10;;;;;;;35.70;10.77;;;6.20;99.90;;;;;;5064914;28;20029;-79
2022/11/26 03:18:07;;;;;;;31.10;10.27;;;6.20;99.90;;;;;;5063101;28;20027;-78
2022/11/26 03:20:35;;;;;;;25.90;10.85;;;6.20;99.90;;;;;;5022976;28;20106;-78
2022/11/26 03:23:01;;;;;;;28.83;10.27;;;6.20;99.90;;;;;;5081384;28;20350;-78
2022/11/26 03:25:27;;;;;;;29.83;10.13;;;6.40;99.90;;;;;;5044230;28;20036;-78
2022/11/26 03:27:53;;;;;;;29.73;12.10;;;6.30;99.90;;;;;;5059962;28;20120;-78
2022/11/26 03:30:31;;;;;;;29.50;10.50;;;6.30;99.90;;;;;;5083807;28;20215;-78
2022/11/26 03:33:17;;;;;;;25.55;11.13;;;6.00;99.90;;;;;;5038774;28;20079;-78
2022/11/26 03:35:47;;;;;;;23.80;11.18;;;6.90;99.90;;;;;;5061528;28;20028;-78
2022/11/26 03:41:03;;;;;;;26.58;10.95;;;6.40;99.90;;;;;;5080373;28;20044;-77
2022/11/26 03:43:29;;;;;;;28.73;11.90;;;5.80;99.90;;;;;;5047886;28;20032;-77
2022/11/26 03:45:58;;;;;;;29.50;10.68;;;6.20;99.90;;;;;;5048306;28;20036;-78
2022/11/26 03:48:23;;;;;;;30.30;10.57;;;3.50;99.90;;;;;;5073051;28;20447;-77
2022/11/26 03:50:49;;;;;;;30.55;10.38;;;6.10;99.90;;;;;;5064972;28;20043;-78
2022/11/26 03:53:15;;;;;;;35.13;11.55;;;6.70;99.90;;;;;;5065127;28;20071;-78
2022/11/26 03:55:41;;;;;;;26.80;10.80;;;5.70;99.90;;;;;;5047216;28;20035;-78
2022/11/26 04:01:44;;;;;;;;;;;6.20;99.90;;;;;;5034351;28;20031;-78
2022/11/26 04:04:10;;;;;;;28.13;10.85;;;8.20;99.90;;;;;;5079300;28;19916;-77
2022/11/26 04:06:43;;;;;;;26.83;10.40;;;5.90;99.90;;;;;;5047031;28;20068;-79
2022/11/26 04:09:20;;;;;;;28.52;11.65;;;5.70;99.90;;;;;;5079603;28;20056;-78
2022/11/26 04:11:49;;;;;;;30.85;11.98;;;6.10;99.90;;;;;;5080055;28;20386;-78
2022/11/26 04:14:15;;;;;;;30.73;11.55;;;5.90;99.90;;;;;;5063587;28;20024;-77
2022/11/26 04:16:41;;;;;;;25.58;9.50;;;7.30;99.90;;;;;;5062747;28;20474;-77
2022/11/26 04:19:06;;;;;;;25.00;10.57;;;8.70;99.90;;;;;;5062801;28;20043;-78
2022/11/26 04:21:35;;;;;;;24.17;9.70;;;6.00;99.90;;;;;;5062060;28;20033;-78
2022/11/26 04:24:03;;;;;;;31.00;9.93;;;5.90;99.90;;;;;;5063695;28;20334;-78
2022/11/26 04:26:32;;;;;;;32.42;12.40;;;5.90;99.90;;;;;;5050870;28;20048;-78
2022/11/26 04:28:58;;;;;;;26.77;9.80;;;6.10;99.90;;;;;;5021533;28;20061;-78
2022/11/26 04:31:24;;;;;;;31.27;12.95;;;;;;;;;;5054560;28;20073;-78
2022/11/26 04:33:49;;;;;;;36.30;12.18;;;5.60;99.90;;;;;;5059579;28;20344;-79
2022/11/26 04:36:18;;;;;;;33.58;12.07;;;5.90;99.90;;;;;;5046981;28;20036;-79
2022/11/26 04:38:47;;;;;;;29.67;13.30;;;5.90;99.90;;;;;;5074961;28;20096;-78
2022/11/26 04:41:12;;;;;;;35.30;11.88;;;5.70;99.90;;;;;;5077422;28;20031;-78
2022/11/26 04:44:24;;;;;;;28.33;11.18;;;7.30;99.90;;;;;;5034307;28;20226;-78
2022/11/26 04:46:53;;;;;;;26.85;8.80;;;5.50;99.90;;;;;;5098839;28;20392;-78
2022/11/26 04:49:18;;;;;;;26.95;10.45;;;7.50;99.90;;;;;;5061693;28;20040;-78
2022/11/26 04:52:53;;;;;;;;;;;;;;;;;;;;;
2022/11/26 04:55:20;;;;;;;22.60;9.90;;;6.60;99.90;;;;;;5060487;28;20029;-78
2022/11/26 04:58:14;;;;;;;24.05;11.20;;;5.30;99.90;;;;;;5062144;28;20071;-77
2022/11/26 05:00:43;;;;;;;22.80;10.77;;;5.60;99.90;;;;;;5043419;28;20354;-77
2022/11/26 05:03:35;;;;;;;25.50;11.77;;;5.50;99.90;;;;;;5062715;28;20059;-79
2022/11/26 05:06:54;;;;;;;30.92;10.93;;;4.10;99.90;;;;;;5077974;28;20301;-78
2022/11/26 05:10:07;;;;;;;21.52;10.77;;;5.60;99.90;;;;;;5029258;28;20041;-76
2022/11/26 05:12:39;;;;;;;22.27;11.35;;;7.80;99.90;;;;;;5069552;28;20130;-77
2022/11/26 05:15:05;;;;;;;24.85;10.98;;;5.90;99.90;;;;;;5065365;28;20064;-77
2022/11/26 05:17:31;;;;;;;27.73;12.73;;;5.50;99.90;;;;;;5066847;28;20047;-78
2022/11/26 05:20:16;;;;;;;28.25;12.45;;;5.80;99.90;;;;;;5078108;28;20032;-77
2022/11/26 05:22:51;;;;;;;28.00;11.55;;;3.80;99.90;;;;;;5074372;28;20028;-77
2022/11/26 05:25:17;;;;;;;28.65;12.40;;;5.20;99.90;;;;;;5066165;28;20319;-76
2022/11/26 05:27:43;;;;;;;28.85;10.75;;;5.50;99.90;;;;;;5064188;28;20028;-76
2022/11/26 05:30:09;;;;;;;30.85;13.18;;;5.10;99.90;;;;;;5065482;28;20059;-76
2022/11/26 05:32:35;;;;;;;20.90;11.23;;;5.10;99.90;;;;;;5045221;28;20032;-78
2022/11/26 05:35:08;;;;;;;23.80;10.95;;;5.30;99.90;;;;;;5098257;28;20255;-78
2022/11/26 05:41:41;;;;;;;19.58;9.70;;;5.40;99.90;;;;;;5072054;28;20347;-79
2022/11/26 05:44:07;;;;;;;23.20;11.57;;;5.70;99.90;;;;;;5080871;28;20031;-76
2022/11/26 05:46:43;;;;;;;27.52;11.95;;;5.50;99.90;;;;;;5056571;28;20319;-76
2022/11/26 05:49:21;;;;;;;20.67;12.02;;;5.70;99.90;;;;;;5072124;28;20123;-78
2022/11/26 05:51:46;;;;;;;20.65;11.65;;;4.00;99.90;;;;;;5069316;28;20029;-77
2022/11/26 05:54:14;;;;;;;33.38;13.75;;;5.90;99.90;;;;;;5048887;28;20032;-77
2022/11/26 05:56:41;;;;;;;22.52;12.07;;;7.60;99.90;;;;;;5049297;28;20040;-77
2022/11/26 05:59:06;;;;;;;29.00;12.82;;;5.50;99.90;;;;;;5066514;28;20036;-76
2022/11/26 06:01:47;;;;;;;29.75;12.23;;;5.50;99.90;;;;;;5066258;28;20036;-79
2022/11/26 06:04:33;;;;;;;29.25;13.82;;;5.60;99.90;;;;;;5041800;28;20384;-77
2022/11/26 06:07:14;;;;;;;21.08;11.90;;;8.80;99.90;;;;;;5055461;28;20246;-77
2022/11/26 06:09:39;;;;;;;27.95;12.98;;;5.70;99.90;;;;;;5064049;28;20077;-76
2022/11/26 06:12:05;;;;;;;29.25;12.40;;;6.30;99.90;;;;;;5102418;28;20083;-77
2022/11/26 06:14:31;;;;;;;25.63;11.57;;;4.80;99.90;;;;;;5053149;28;20079;-78
2022/11/26 06:16:56;;;;;;;27.10;12.68;;;7.40;99.90;;;;;;5046241;28;20242;-78
2022/11/26 06:19:25;;;;;;;23.58;11.13;;;5.60;99.90;;;;;;5049195;28;20035;-78
2022/11/26 06:22:23;;;;;;;22.83;11.15;;;5.70;99.90;;;;;;5044259;28;20032;-78
2022/11/26 06:25:33;;;;;;;29.00;11.73;;;5.30;99.90;;;;;;4991378;28;20328;-78
2022/11/26 06:32:22;;;;;;;17.27;10.43;;;4.40;99.90;;;;;;5037243;28;20057;-78
2022/11/26 06:38:18;;;;;;;34.83;15.50;;;5.70;99.90;;;;;;5032611;28;20073;-78
2022/11/26 06:41:04;;;;;;;26.98;14.00;;;5.70;99.90;;;;;;5032660;28;20132;-77
2022/11/26 06:43:31;;;;;;;31.20;13.50;;;5.60;99.90;;;;;;5089064;28;20031;-78
2022/11/26 06:46:08;;;;;;;27.92;11.18;;;5.20;99.90;;;;;;5059213;28;20048;-78
2022/11/26 06:48:35;;;;;;;22.10;12.20;;;5.20;99.90;;;;;;5063502;28;20044;-78
2022/11/26 06:51:28;;;;;;;21.77;11.30;;;4.70;99.90;;;;;;5064647;28;20089;-78
2022/11/26 06:53:54;;;;;;;26.30;11.77;;;4.60;99.90;;;;;;5059692;28;20501;-78
2022/11/26 06:57:33;;;;;;;32.10;14.43;;;7.00;99.90;;;;;;5058695;28;20036;-77
2022/11/26 07:00:45;;;;;;;34.20;15.57;;;4.80;99.90;;;;;;5034739;28;20036;-78
2022/11/26 07:03:20;;;;;;;27.65;12.70;;;4.50;99.90;;;;;;5057709;28;20032;-78
2022/11/26 07:05:46;;;;;;;29.42;14.50;;;6.50;99.90;;;;;;5063952;28;20277;-77
2022/11/26 07:08:11;;;;;;;22.63;12.15;;;5.80;99.90;;;;;;5046104;28;20048;-77
2022/11/26 07:10:37;;;;;;;26.45;12.32;;;5.60;99.90;;;;;;5078486;28;20340;-77
2022/11/26 07:13:03;;;;;;;21.95;11.85;;;5.80;99.90;;;;;;5061028;28;20096;-75
2022/11/26 07:15:53;;;;;;;27.08;11.60;;;5.30;99.90;;;;;;5068431;28;20047;-77
2022/11/26 07:18:19;;;;;;;29.63;12.43;;;5.00;99.90;;;;;;5048317;28;20064;-77
2022/11/26 07:20:45;;;;;;;26.77;11.73;;;5.60;99.90;;;;;;5044006;28;20102;-75
2022/11/26 07:23:11;;;;;;;32.65;15.68;;;5.30;99.90;;;;;;5044197;28;20036;-77
2022/11/26 07:25:36;;;;;;;24.50;12.93;;;5.70;99.90;;;;;;5043441;28;20056;-78
2022/11/26 07:28:05;;;;;;;28.45;14.40;;;5.20;99.90;;;;;;5079315;28;20048;-77
2022/11/26 07:31:38;;;;;;;34.20;15.82;;;5.30;99.90;;;;;;5054592;28;20227;-77
2022/11/26 07:34:04;;;;;;;24.85;13.15;;;4.50;99.90;;;;;;5005350;28;20056;-78
2022/11/26 07:37:32;;;;;;;28.23;15.77;;;6.30;99.90;;;;;;5021289;28;20116;-78
2022/11/26 07:39:57;;;;;;;;;;;6.10;99.90;;;;;;5008510;28;20040;-77
2022/11/26 07:42:22;;;;;;;32.97;15.32;;;6.00;99.90;;;;;;5041865;28;19921;-77
2022/11/26 07:44:51;;;;;;;29.98;15.50;;;5.50;99.90;;;;;;5047960;28;20100;-77
2022/11/26 07:47:17;;;;;;;33.58;17.42;;;4.00;99.90;;;;;;5068897;28;20028;-78
2022/11/26 07:53:18;;;;;;;43.10;17.40;;;4.60;99.90;;;;;;5078887;28;20028;-76
2022/11/26 07:55:43;;;;;;;37.80;18.85;;;6.00;99.90;;;;;;5072492;28;20020;-78
2022/11/26 07:58:09;;;;;;;40.95;19.45;;;5.70;99.90;;;;;;5055440;28;20112;-77
2022/11/26 08:00:35;;;;;;;44.75;20.13;;;6.90;99.90;;;;;;5059824;28;20032;-78
2022/11/26 08:03:04;;;;;;;38.75;18.98;;;6.60;99.90;;;;;;5024661;28;20053;-78
2022/11/26 08:06:35;;;;;;;35.45;19.52;;;5.60;99.90;;;;;;5056908;28;20048;-77
2022/11/26 08:09:10;;;;;;;31.38;14.18;;;5.00;99.90;;;;;;5078456;28;20082;-77
2022/11/26 08:11:36;;;;;;;29.98;16.38;;;5.80;99.90;;;;;;5068949;28;20033;-77
2022/11/26 08:14:04;;;;;;;33.63;15.05;;;5.80;99.90;;;;;;5050950;28;20074;-78
2022/11/26 08:16:30;;;;;;;31.75;14.32;;;6.00;99.90;;;;;;5058197;28;20056;-78
2022/11/26 08:19:02;;;;;;;32.65;15.77;;;6.40;99.90;;;;;;5065174;28;20036;-79
2022/11/26 08:21:31;;;;;;;26.73;14.82;;;6.10;99.90;;;;;;5046260;28;20064;-78
2022/11/26 08:24:04;;;;;;;31.15;14.63;;;6.30;99.90;;;;;;5040811;28;20032;-78
2022/11/26 08:26:30;;;;;;;33.97;15.02;;;6.20;99.90;;;;;;5080713;28;20044;-78
2022/11/26 08:29:32;;;;;;;;;;;6.10;99.90;;;;;;5065765;28;20035;-78
2022/11/26 08:31:58;;;;;;;25.58;13.82;;;7.10;99.90;;;;;;5077909;28;19924;-78
2022/11/26 08:34:23;;;;;;;34.88;15.35;;;6.80;99.90;;;;;;5058481;28;20031;-78
2022/11/26 08:36:53;;;;;;;31.25;14.85;;;6.90;99.90;;;;;;5062555;28;20187;-80
2022/11/26 08:42:46;;;;;;;23.13;13.02;;;7.00;99.90;;;;;;5023052;28;20065;-78
2022/11/26 08:45:53;;;;;;;28.40;13.65;;;6.00;99.90;;;;;;5046865;28;20040;-77
2022/11/26 08:48:59;;;;;;;28.98;13.25;;;7.20;99.90;;;;;;5038369;28;20338;-79
2022/11/26 08:51:36;;;;;;;;;;;7.10;99.90;;;;;;5018653;28;20052;-78
2022/11/26 08:54:07;;;;;;;28.25;12.55;;;6.70;99.90;;;;;;4981870;28;20200;-78
2022/11/26 08:56:33;;;;;;;26.05;14.13;;;7.20;99.90;;;;;;5084049;28;20234;-78
2022/11/26 08:59:04;;;;;;;23.10;13.25;;;9.10;99.90;;;;;;5008183;28;20056;-76
2022/11/26 09:01:34;;;;;;;20.58;12.15;;;7.30;99.90;;;;;;5050548;28;20047;-77
2022/11/26 09:04:02;;;;;;;26.00;12.25;;;7.20;99.90;;;;;;5077370;28;20032;-76
2022/11/26 09:06:35;;;;;;;22.90;11.43;;;7.20;99.90;;;;;;5027315;28;20051;-77
2022/11/26 09:13:08;;;;;;;18.80;9.57;;;6.40;99.90;;;;;;4919851;29;20056;-77
2022/11/26 09:15:36;;;;;;;20.08;11.07;;;7.90;99.90;;;;;;4928993;28;20323;-76
2022/11/26 09:21:49;;;;;;;19.27;10.60;;;7.80;99.90;;;;;;5018536;28;20135;-78
2022/11/26 09:24:31;;;;;;;20.85;9.73;;;9.20;99.90;;;;;;5081442;28;20033;-78
2022/11/26 09:26:56;;;;;;;22.17;9.67;;;8.30;99.90;;;;;;5044756;28;20066;-78
2022/11/26 09:29:23;;;;;;;15.80;8.15;;;8.40;99.90;;;;;;5061676;28;20040;-79
2022/11/26 09:35:13;;;;;;;18.05;9.63;;;8.60;99.90;;;;;;5057764;28;20075;-78
2022/11/26 09:37:45;;;;;;;15.55;7.82;;;7.70;99.90;;;;;;5033139;28;20020;-77
2022/11/26 09:40:17;;;;;;;16.25;8.50;;;8.20;99.90;;;;;;5061599;28;20036;-77
2022/11/26 09:43:16;;;;;;;14.95;8.98;;;8.60;99.90;;;;;;5060981;28;20104;-77
2022/11/26 09:45:48;;;;;;;16.33;9.05;;;8.30;99.90;;;;;;5061084;28;20108;-78
2022/11/26 09:48:20;;;;;;;21.45;9.18;;;9.00;99.90;;;;;;5060734;28;20099;-77
2022/11/26 09:50:48;;;;;;;16.08;7.75;;;8.60;99.90;;;;;;5079355;28;20044;-86
2022/11/26 09:56:12;;;;;;;15.30;7.88;;;8.90;99.90;;;;;;5042929;28;20044;-77
2022/11/26 09:58:42;;;;;;;20.33;7.82;;;9.20;99.90;;;;;;5066735;28;20039;-78
2022/11/26 10:04:45;;;;;;;18.83;8.00;;;9.80;99.90;;;;;;5034191;28;20516;-78
2022/11/26 10:07:53;;;;;;;20.20;7.93;;;8.70;99.90;;;;;;5048052;28;20056;-77
2022/11/26 10:22:28;;;;;;;;;;;;;;;;;;;;;
2022/11/26 10:25:55;;;;;;;19.90;7.70;;;10.00;99.90;;;;;;4958953;28;20041;-78
2022/11/26 10:29:21;;;;;;;18.77;7.32;;;9.20;99.90;;;;;;5006881;28;20036;-77
2022/11/26 10:32:25;;;;;;;12.53;6.60;;;8.90;99.90;;;;;;5056268;28;20386;-77
2022/11/26 10:39:01;;;;;;;;;;;;;;;;;;;;;
2022/11/26 10:45:53;;;;;;;13.82;7.00;;;8.10;99.90;;;;;;5028086;28;20369;-79
2022/11/26 10:48:29;;;;;;;22.92;9.15;;;8.30;99.90;;;;;;5025352;28;20120;-78
2022/11/26 10:51:43;;;;;;;;;;;;;;;;;;;;;
2022/11/26 10:54:41;;;;;;;;;;;;;;;;;;;;;
2022/11/26 10:57:16;;;;;;;17.95;9.00;;;8.90;99.90;;;;;;5080506;28;20029;-79
2022/11/26 10:59:53;;;;;;;15.13;8.43;;;8.80;99.90;;;;;;5063823;28;20028;-78
2022/11/26 11:02:27;;;;;;;19.88;7.60;;;9.00;99.90;;;;;;5076797;28;20072;-78
2022/11/26 11:05:19;;;;;;;18.83;8.32;;;8.80;99.90;;;;;;5053636;28;20055;-77
2022/11/26 11:07:55;;;;;;;;;;;;;;;;;;;;;
2022/11/26 11:11:15;;;;;;;;;;;;;;;;;;;;;
2022/11/26 11:13:59;;;;;;;19.48;8.75;;;9.40;99.90;;;;;;5080073;28;20059;-77
2022/11/26 11:17:12;;;;;;;15.60;7.88;;;9.30;99.90;;;;;;5061551;28;20058;-78
2022/11/26 11:19:38;;;;;;;19.08;9.13;;;8.50;99.90;;;;;;5054142;28;20522;-78
2022/11/26 11:22:18;;;;;;;20.48;9.63;;;9.00;99.90;;;;;;5063051;28;20032;-78
2022/11/26 11:25:20;;;;;;;25.23;10.10;;;9.00;99.90;;;;;;5062818;28;20107;-78
2022/11/26 11:27:46;;;;;;;19.13;9.77;;;9.90;99.90;;;;;;5045956;28;20428;-79
2022/11/26 11:30:24;;;;;;;31.00;10.80;;;8.90;99.90;;;;;;5093143;28;20049;-78
2022/11/26 11:33:08;;;;;;;18.07;8.87;;;9.10;99.90;;;;;;5077469;28;20215;-78
2022/11/26 11:35:34;;;;;;;19.50;9.55;;;8.80;99.90;;;;;;5076465;28;20279;-78
2022/11/26 11:38:00;;;;;;;20.08;11.27;;;9.00;99.90;;;;;;5076753;28;20048;-78
2022/11/26 11:43:43;;;;;;;24.10;11.27;;;8.80;99.90;;;;;;5041369;28;20033;-80
2022/11/26 11:46:48;;;;;;;23.73;10.88;;;9.20;99.90;;;;;;5044158;28;20040;-78
2022/11/26 11:49:48;;;;;;;22.67;11.35;;;9.00;99.90;;;;;;5041636;28;20223;-78
2022/11/26 11:52:27;;;;;;;22.42;11.07;;;9.00;99.90;;;;;;5041079;28;20099;-78
2022/11/26 11:55:18;;;;;;;26.33;11.93;;;9.20;99.90;;;;;;5090098;28;20041;-79
2022/11/26 11:58:00;;;;;;;22.10;11.38;;;9.30;99.90;;;;;;5058605;28;20028;-79
2022/11/26 12:00:48;;;;;;;28.08;12.88;;;9.10;99.90;;;;;;5062567;28;20074;-79
2022/11/26 12:07:54;;;;;;;25.35;11.27;;;9.00;99.90;;;;;;5061085;28;20317;-79
2022/11/26 12:10:23;;;;;;;24.05;9.90;;;9.00;99.90;;;;;;5025297;28;20056;-78
2022/11/26 12:12:58;;;;;;;26.63;9.55;;;9.00;99.90;;;;;;5041750;28;20028;-78
2022/11/26 12:15:44;;;;;;;16.95;9.95;;;9.00;99.90;;;;;;5041043;28;20036;-78
2022/11/26 12:18:37;;;;;;;22.88;9.85;;;9.00;99.90;;;;;;5040239;28;20077;-78
2022/11/26 12:21:13;;;;;;;21.60;9.98;;;9.00;99.90;;;;;;5065985;28;20045;-77
2022/11/26 12:24:12;;;;;;;20.67;10.45;;;9.20;99.90;;;;;;5041730;28;20567;-79
2022/11/26 12:27:10;;;;;;;16.23;9.13;;;9.10;99.90;;;;;;5074803;28;20093;-80
2022/11/26 12:30:13;;;;;;;29.55;10.82;;;9.20;99.90;;;;;;5059067;28;20044;-79
2022/11/26 12:32:53;;;;;;;25.23;11.43;;;9.20;99.90;;;;;;5041820;28;20048;-79
2022/11/26 12:35:33;;;;;;;16.67;9.00;;;9.00;99.90;;;;;;5052973;28;20033;-76
2022/11/26 12:38:20;;;;;;;25.13;12.02;;;9.20;99.90;;;;;;5058411;28;20028;-77
2022/11/26 12:41:11;;;;;;;22.95;10.30;;;9.30;99.90;;;;;;5076176;28;20025;-77
2022/11/26 12:44:33;;;;;;;32.63;12.90;;;9.10;99.90;;;;;;5039102;28;20216;-79
2022/11/26 12:51:17;;;;;;;18.75;10.15;;;6.80;99.90;;;;;;5060473;28;20040;-78
2022/11/26 12:55:12;;;;;;;;;;;;;;;;;;;;;
2022/11/26 12:58:02;;;;;;;28.63;14.90;;;10.80;99.90;;;;;;5048141;28;20037;-79
2022/11/26 13:00:35;;;;;;;19.95;13.05;;;8.90;99.90;;;;;;5049434;28;20248;-80
2022/11/26 13:03:02;;;;;;;23.73;12.68;;;9.00;99.90;;;;;;5060935;28;20165;-78
2022/11/26 13:17:22;;;;;;;30.55;16.20;;;7.90;99.90;;;;;;4997182;28;20407;-78
2022/11/26 13:20:00;;;;;;;25.80;15.40;;;8.90;99.90;;;;;;5053413;28;20040;-79
2022/11/26 13:22:39;;;;;;;34.70;17.35;;;8.80;99.90;;;;;;5073391;28;20031;-77
2022/11/26 13:25:36;;;;;;;30.50;17.15;;;8.80;99.90;;;;;;5108474;28;20032;-77
2022/11/26 13:28:39;;;;;;;21.88;12.48;;;9.00;99.90;;;;;;5092410;28;20038;-77
2022/11/26 13:31:20;;;;;;;26.10;15.32;;;8.90;99.90;;;;;;5089178;28;20043;-77
2022/11/26 13:34:23;;;;;;;28.65;15.93;;;9.00;99.90;;;;;;5077655;28;20195;-79
2022/11/26 13:37:25;;;;;;;36.05;17.63;;;8.80;99.90;;;;;;5084532;28;20035;-77
2022/11/26 13:39:59;;;;;;;30.98;16.10;;;9.10;99.90;;;;;;5095664;28;20035;-77
2022/11/26 13:43:02;;;;;;;27.33;13.82;;;8.90;99.90;;;;;;5090663;28;20151;-78
2022/11/26 13:46:31;;;;;;;;;;;;;;;;;;;;;
2022/11/26 13:49:56;;;;;;;35.20;15.95;;;10.70;99.90;;;;;;5028053;28;20041;-76
2022/11/26 13:53:15;;;;;;;26.57;15.87;;;8.60;99.90;;;;;;5006794;28;20087;-77
2022/11/26 13:56:03;;;;;;;31.92;15.40;;;8.60;99.90;;;;;;4994574;28;20037;-75
2022/11/26 13:59:00;;;;;;;31.98;14.63;;;9.30;99.90;;;;;;5045030;28;20467;-76
2022/11/26 14:01:38;;;;;;;28.20;15.73;;;8.90;99.90;;;;;;5048588;28;20052;-76
2022/11/26 14:04:34;;;;;;;24.10;14.15;;;8.70;99.90;;;;;;5056693;28;20032;-77
2022/11/26 14:07:11;;;;;;;31.48;16.88;;;8.90;99.90;;;;;;5042728;28;20068;-76
2022/11/26 14:09:43;;;;;;;31.52;16.83;;;9.80;99.90;;;;;;5039209;28;20438;-78
2022/11/26 14:12:10;;;;;;;29.63;15.32;;;8.70;99.90;;;;;;5021800;28;20183;-76
2022/11/26 14:14:38;;;;;;;36.58;17.15;;;8.50;99.90;;;;;;5023022;28;20021;-76
2022/11/26 14:17:12;;;;;;;36.00;17.35;;;8.80;99.90;;;;;;5020825;28;20041;-75
2022/11/26 14:19:41;;;;;;;32.58;14.60;;;8.80;99.90;;;;;;5038227;28;20197;-77
2022/11/26 14:22:15;;;;;;;34.08;16.40;;;8.90;99.90;;;;;;5013641;28;20037;-75
2022/11/26 14:24:49;;;;;;;27.80;17.13;;;9.30;99.90;;;;;;5019311;28;20034;-75
2022/11/26 14:27:26;;;;;;;35.38;17.10;;;8.70;99.90;;;;;;5052687;28;20339;-77
2022/11/26 14:30:07;;;;;;;32.88;15.95;;;8.90;99.90;;;;;;5019726;28;20120;-75
2022/11/26 14:32:41;;;;;;;31.15;15.18;;;8.60;99.90;;;;;;5059130;28;20045;-76
2022/11/26 14:35:23;;;;;;;32.15;15.93;;;8.90;99.90;;;;;;5040117;28;20063;-76
2022/11/26 14:37:52;;;;;;;26.70;15.30;;;8.80;99.90;;;;;;5064807;28;20036;-76
2022/11/26 14:40:33;;;;;;;29.92;16.45;;;8.80;99.90;;;;;;5085451;28;20036;-77
2022/11/26 14:43:32;;;;;;;30.38;15.20;;;8.80;99.90;;;;;;5091124;28;20103;-77
2022/11/26 14:46:18;;;;;;;30.33;14.10;;;8.70;99.90;;;;;;4998075;28;20204;-77
2022/11/26 14:52:21;;;;;;;42.67;17.50;;;11.00;99.90;;;;;;5031725;28;20063;-78
2022/11/26 14:54:51;;;;;;;36.63;16.15;;;8.70;99.90;;;;;;5072178;28;20035;-77
2022/11/26 14:57:39;;;;;;;25.98;13.07;;;8.70;99.90;;;;;;5067145;28;20040;-77
2022/11/26 15:00:30;;;;;;;34.97;16.67;;;6.70;99.90;;;;;;5084150;28;20034;-76
2022/11/26 15:03:02;;;;;;;34.05;15.90;;;10.80;99.90;;;;;;5071560;28;20040;-77
2022/11/26 15:05:32;;;;;;;38.95;16.58;;;11.60;99.90;;;;;;5087163;28;20080;-77
2022/11/26 15:08:04;;;;;;;42.75;18.70;;;8.70;99.90;;;;;;5089949;28;20037;-78
2022/11/26 15:14:05;;;;;;;28.13;15.65;;;7.10;99.90;;;;;;5086011;28;20043;-76
2022/11/26 15:17:14;;;;;;;41.25;18.25;;;8.60;99.90;;;;;;5106970;27;20107;-76
2022/11/26 15:20:01;;;;;;;24.95;15.65;;;8.70;99.90;;;;;;5118979;27;20042;-77
2022/11/26 15:22:41;;;;;;;35.47;17.73;;;8.70;99.90;;;;;;5087801;28;20039;-77
2022/11/26 15:25:27;;;;;;;29.50;15.70;;;8.60;99.90;;;;;;5082545;28;20102;-75
2022/11/26 15:28:36;;;;;;;;;;;;;;;;;;;;;
2022/11/26 15:31:09;;;;;;;30.30;15.45;;;9.00;99.90;;;;;;5091521;28;20028;-75
2022/11/26 15:33:37;;;;;;;43.15;18.55;;;9.10;99.90;;;;;;5090043;28;20047;-75
2022/11/26 15:36:07;;;;;;;38.47;18.40;;;8.70;99.90;;;;;;5084847;28;20024;-77
2022/11/26 15:38:57;;;;;;;33.05;15.40;;;8.80;99.90;;;;;;5108655;27;20048;-78
2022/11/26 15:41:23;;;;;;;35.08;17.75;;;8.70;99.90;;;;;;5089795;28;20261;-73
2022/11/26 15:43:52;;;;;;;42.92;19.08;;;8.70;99.90;;;;;;5092839;27;20124;-76
2022/11/26 15:46:22;;;;;;;31.10;14.70;;;8.50;99.90;;;;;;5078314;28;20039;-77
2022/11/26 15:49:05;;;;;;;29.77;15.98;;;8.70;99.90;;;;;;5086547;28;20053;-77
2022/11/26 15:55:48;;;;;;;40.50;18.40;;;8.70;99.90;;;;;;5122512;27;20539;-76
2022/11/26 15:58:39;;;;;;;41.92;19.48;;;8.50;99.90;;;;;;5108912;28;20398;-76
2022/11/26 16:01:19;;;;;;;36.38;17.17;;;9.10;99.90;;;;;;5092700;28;20032;-77
2022/11/26 16:03:52;;;;;;;36.75;16.45;;;8.80;99.90;;;;;;5079043;27;20058;-77
2022/11/26 16:06:38;;;;;;;29.80;15.13;;;8.40;99.90;;;;;;5076648;28;20027;-77